sensor_id;sensor_type;location;lat;lon;timestamp;pressure;altitude;pressure_sealevel;temperature;humidity
11678;BME280;5895;41.950;24.372;2022-12-11T00:00:20;85123.09;;;9.57;100.00
11678;BME280;5895;41.950;24.372;2022-12-11T00:02:48;85135.00;;;9.58;100.00
11678;BME280;5895;41.950;24.372;2022-12-11T00:05:15;85127.25;;;9.58;100.00
11678;BME280;5895;41.950;24.372;2022-12-11T00:07:44;85166.84;;;9.58;100.00
11678;BME280;5895;41.950;24.372;2022-12-11T00:10:12;85148.72;;;9.63;100.00
11678;BME280;5895;41.950;24.372;2022-12-11T00:12:39;85149.50;;;9.64;100.00
11678;BME280;5895;41.950;24.372;2022-12-11T00:15:07;85159.84;;;9.69;100.00
11678;BME280;5895;41.950;24.372;2022-12-11T00:17:35;85150.53;;;9.73;100.00
11678;BME280;5895;41.950;24.372;2022-12-11T00:20:04;85165.53;;;9.76;100.00
11678;BME280;5895;41.950;24.372;2022-12-11T00:22:32;85133.66;;;9.80;100.00
11678;BME280;5895;41.950;24.372;2022-12-11T00:25:02;85153.09;;;9.83;100.00
11678;BME280;5895;41.950;24.372;2022-12-11T00:27:29;85129.50;;;9.85;100.00
11678;BME280;5895;41.950;24.372;2022-12-11T00:29:57;85143.22;;;9.85;100.00
11678;BME280;5895;41.950;24.372;2022-12-11T00:32:25;85134.97;;;9.83;100.00
11678;BME280;5895;41.950;24.372;2022-12-11T00:34:52;85120.97;;;9.84;100.00
11678;BME280;5895;41.950;24.372;2022-12-11T00:37:20;85140.38;;;9.87;100.00
11678;BME280;5895;41.950;24.372;2022-12-11T00:39:47;85104.88;;;9.87;100.00
11678;BME280;5895;41.950;24.372;2022-12-11T00:42:16;85113.94;;;9.90;100.00
11678;BME280;5895;41.950;24.372;2022-12-11T00:44:44;85128.72;;;9.89;100.00
11678;BME280;5895;41.950;24.372;2022-12-11T00:47:11;85125.09;;;9.90;100.00
11678;BME280;5895;41.950;24.372;2022-12-11T00:49:38;85123.00;;;9.87;100.00
11678;BME280;5895;41.950;24.372;2022-12-11T00:52:06;85112.16;;;9.85;100.00
11678;BME280;5895;41.950;24.372;2022-12-11T00:54:35;85120.97;;;9.84;100.00
11678;BME280;5895;41.950;24.372;2022-12-11T00:57:02;85138.59;;;9.82;100.00
11678;BME280;5895;41.950;24.372;2022-12-11T00:59:31;85130.81;;;9.82;100.00
11678;BME280;5895;41.950;24.372;2022-12-11T01:01:59;85119.41;;;9.83;100.00
11678;BME280;5895;41.950;24.372;2022-12-11T01:04:26;85110.59;;;9.84;100.00
11678;BME280;5895;41.950;24.372;2022-12-11T01:06:53;85149.47;;;9.84;100.00
11678;BME280;5895;41.950;24.372;2022-12-11T01:09:21;85101.03;;;9.85;100.00
11678;BME280;5895;41.950;24.372;2022-12-11T01:12:06;85129.00;;;9.83;100.00
11678;BME280;5895;41.950;24.372;2022-12-11T01:14:35;85120.47;;;9.82;100.00
11678;BME280;5895;41.950;24.372;2022-12-11T01:17:02;85131.59;;;9.77;100.00
11678;BME280;5895;41.950;24.372;2022-12-11T01:19:30;85141.44;;;9.75;100.00
11678;BME280;5895;41.950;24.372;2022-12-11T01:21:57;85098.72;;;9.73;100.00
11678;BME280;5895;41.950;24.372;2022-12-11T01:24:25;85076.97;;;9.69;100.00
11678;BME280;5895;41.950;24.372;2022-12-11T01:26:52;85053.94;;;9.67;100.00
11678;BME280;5895;41.950;24.372;2022-12-11T01:29:20;85042.81;;;9.67;100.00
11678;BME280;5895;41.950;24.372;2022-12-11T01:31:49;85005.53;;;9.68;100.00
11678;BME280;5895;41.950;24.372;2022-12-11T01:34:16;85071.81;;;9.64;100.00
11678;BME280;5895;41.950;24.372;2022-12-11T01:36:44;85006.56;;;9.67;100.00
11678;BME280;5895;41.950;24.372;2022-12-11T01:39:11;84983.25;;;9.67;100.00
11678;BME280;5895;41.950;24.372;2022-12-11T01:41:39;85022.88;;;9.67;100.00
11678;BME280;5895;41.950;24.372;2022-12-11T01:45:10;84952.63;;;9.79;100.00
11678;BME280;5895;41.950;24.372;2022-12-11T01:46:56;84981.63;;;9.81;100.00
11678;BME280;5895;41.950;24.372;2022-12-11T01:49:25;85004.69;;;9.83;100.00
11678;BME280;5895;41.950;24.372;2022-12-11T01:51:57;85031.84;;;9.90;100.00
11678;BME280;5895;41.950;24.372;2022-12-11T01:54:26;84986.53;;;9.88;100.00
11678;BME280;5895;41.950;24.372;2022-12-11T01:56:57;85004.88;;;9.91;100.00
11678;BME280;5895;41.950;24.372;2022-12-11T01:59:29;85020.94;;;9.93;100.00
11678;BME280;5895;41.950;24.372;2022-12-11T02:02:03;85023.78;;;9.97;100.00
11678;BME280;5895;41.950;24.372;2022-12-11T02:04:32;85022.97;;;10.01;100.00
11678;BME280;5895;41.950;24.372;2022-12-11T02:07:01;85028.16;;;10.01;100.00
11678;BME280;5895;41.950;24.372;2022-12-11T02:09:31;85024.03;;;10.00;100.00
11678;BME280;5895;41.950;24.372;2022-12-11T02:12:02;85013.13;;;9.98;100.00
11678;BME280;5895;41.950;24.372;2022-12-11T02:14:35;85030.75;;;10.01;100.00
11678;BME280;5895;41.950;24.372;2022-12-11T02:17:11;85029.69;;;10.02;100.00
11678;BME280;5895;41.950;24.372;2022-12-11T02:19:51;85014.69;;;10.04;100.00
11678;BME280;5895;41.950;24.372;2022-12-11T02:22:27;85040.06;;;10.02;100.00
11678;BME280;5895;41.950;24.372;2022-12-11T02:25:06;85024.00;;;10.05;100.00
11678;BME280;5895;41.950;24.372;2022-12-11T02:27:41;84996.25;;;10.06;100.00
11678;BME280;5895;41.950;24.372;2022-12-11T02:30:14;85028.63;;;10.08;100.00
11678;BME280;5895;41.950;24.372;2022-12-11T02:32:45;84996.00;;;10.07;100.00
11678;BME280;5895;41.950;24.372;2022-12-11T02:35:18;84991.31;;;10.10;100.00
11678;BME280;5895;41.950;24.372;2022-12-11T02:37:50;85032.25;;;10.13;100.00
11678;BME280;5895;41.950;24.372;2022-12-11T02:40:25;85060.75;;;10.13;100.00
11678;BME280;5895;41.950;24.372;2022-12-11T02:42:55;85025.50;;;10.17;100.00
11678;BME280;5895;41.950;24.372;2022-12-11T02:45:26;85026.25;;;10.17;100.00
11678;BME280;5895;41.950;24.372;2022-12-11T02:47:56;85012.53;;;10.17;100.00
11678;BME280;5895;41.950;24.372;2022-12-11T02:50:25;85020.56;;;10.15;100.00
11678;BME280;5895;41.950;24.372;2022-12-11T02:52:54;85027.56;;;10.15;100.00
11678;BME280;5895;41.950;24.372;2022-12-11T02:55:25;85051.91;;;10.14;100.00
11678;BME280;5895;41.950;24.372;2022-12-11T02:57:59;85016.19;;;10.11;100.00
11678;BME280;5895;41.950;24.372;2022-12-11T03:00:30;85047.53;;;10.09;100.00
11678;BME280;5895;41.950;24.372;2022-12-11T03:02:57;85052.22;;;10.07;100.00
11678;BME280;5895;41.950;24.372;2022-12-11T03:05:25;85058.19;;;10.07;100.00
11678;BME280;5895;41.950;24.372;2022-12-11T03:07:53;85054.53;;;10.08;100.00
11678;BME280;5895;41.950;24.372;2022-12-11T03:10:21;85072.44;;;10.10;100.00
11678;BME280;5895;41.950;24.372;2022-12-11T03:12:51;85045.47;;;10.11;100.00
11678;BME280;5895;41.950;24.372;2022-12-11T03:15:21;85061.25;;;10.10;100.00
11678;BME280;5895;41.950;24.372;2022-12-11T03:17:59;85059.72;;;10.08;100.00
11678;BME280;5895;41.950;24.372;2022-12-11T03:20:35;85087.72;;;10.06;100.00
11678;BME280;5895;41.950;24.372;2022-12-11T03:23:12;85051.44;;;10.06;100.00
11678;BME280;5895;41.950;24.372;2022-12-11T03:25:47;85039.53;;;10.05;100.00
11678;BME280;5895;41.950;24.372;2022-12-11T03:28:21;85095.78;;;10.05;100.00
11678;BME280;5895;41.950;24.372;2022-12-11T03:30:51;85090.84;;;10.03;100.00
11678;BME280;5895;41.950;24.372;2022-12-11T03:33:23;85083.34;;;10.02;100.00
11678;BME280;5895;41.950;24.372;2022-12-11T03:35:54;85124.00;;;10.01;100.00
11678;BME280;5895;41.950;24.372;2022-12-11T03:38:24;85102.25;;;10.02;100.00
11678;BME280;5895;41.950;24.372;2022-12-11T03:40:55;85086.69;;;10.02;100.00
11678;BME280;5895;41.950;24.372;2022-12-11T03:43:25;85100.69;;;10.01;100.00
11678;BME280;5895;41.950;24.372;2022-12-11T03:45:55;85081.56;;;9.92;100.00
11678;BME280;5895;41.950;24.372;2022-12-11T03:48:29;85070.97;;;9.89;100.00
11678;BME280;5895;41.950;24.372;2022-12-11T03:50:57;85073.28;;;9.85;100.00
11678;BME280;5895;41.950;24.372;2022-12-11T03:53:27;85093.53;;;9.83;100.00
11678;BME280;5895;41.950;24.372;2022-12-11T03:55:56;85111.13;;;9.81;100.00
11678;BME280;5895;41.950;24.372;2022-12-11T03:58:25;85105.94;;;9.81;100.00
11678;BME280;5895;41.950;24.372;2022-12-11T04:00:52;85092.50;;;9.79;100.00
11678;BME280;5895;41.950;24.372;2022-12-11T04:03:20;85123.84;;;9.77;100.00
11678;BME280;5895;41.950;24.372;2022-12-11T04:05:51;85141.72;;;9.74;100.00
11678;BME280;5895;41.950;24.372;2022-12-11T04:08:19;85129.31;;;9.71;100.00
11678;BME280;5895;41.950;24.372;2022-12-11T04:10:47;85151.84;;;9.65;100.00
11678;BME280;5895;41.950;24.372;2022-12-11T04:13:35;85118.94;;;9.66;100.00
11678;BME280;5895;41.950;24.372;2022-12-11T04:16:03;85135.00;;;9.63;100.00
11678;BME280;5895;41.950;24.372;2022-12-11T04:18:29;85142.25;;;9.61;100.00
11678;BME280;5895;41.950;24.372;2022-12-11T04:21:15;85127.25;;;9.58;100.00
11678;BME280;5895;41.950;24.372;2022-12-11T04:24:00;85150.53;;;9.52;100.00
11678;BME280;5895;41.950;24.372;2022-12-11T04:26:44;85149.53;;;9.48;100.00
11678;BME280;5895;41.950;24.372;2022-12-11T04:29:12;85150.03;;;9.45;100.00
11678;BME280;5895;41.950;24.372;2022-12-11T04:31:39;85150.56;;;9.42;100.00
11678;BME280;5895;41.950;24.372;2022-12-11T04:34:07;85172.84;;;9.43;100.00
11678;BME280;5895;41.950;24.372;2022-12-11T04:36:36;85183.97;;;9.44;100.00
11678;BME280;5895;41.950;24.372;2022-12-11T04:39:04;85183.69;;;9.45;100.00
11678;BME280;5895;41.950;24.372;2022-12-11T04:41:32;85180.59;;;9.48;100.00
11678;BME280;5895;41.950;24.372;2022-12-11T04:43:59;85170.47;;;9.52;100.00
11678;BME280;5895;41.950;24.372;2022-12-11T04:46:27;85186.03;;;9.52;100.00
11678;BME280;5895;41.950;24.372;2022-12-11T04:48:54;85175.66;;;9.52;100.00
11678;BME280;5895;41.950;24.372;2022-12-11T04:51:22;85174.38;;;9.54;100.00
11678;BME280;5895;41.950;24.372;2022-12-11T04:53:53;85153.66;;;9.54;100.00
11678;BME280;5895;41.950;24.372;2022-12-11T04:56:20;85165.56;;;9.56;100.00
11678;BME280;5895;41.950;24.372;2022-12-11T04:58:48;85170.75;;;9.56;100.00
11678;BME280;5895;41.950;24.372;2022-12-11T05:01:18;85148.72;;;9.58;100.00
11678;BME280;5895;41.950;24.372;2022-12-11T05:03:46;85122.34;;;9.56;100.00
11678;BME280;5895;41.950;24.372;2022-12-11T05:06:14;85132.97;;;9.54;100.00
11678;BME280;5895;41.950;24.372;2022-12-11T05:08:42;85119.47;;;9.52;100.00
11678;BME280;5895;41.950;24.372;2022-12-11T05:11:13;85111.22;;;9.50;100.00
11678;BME280;5895;41.950;24.372;2022-12-11T05:13:41;85094.91;;;9.50;100.00
11678;BME280;5895;41.950;24.372;2022-12-11T05:16:10;85096.72;;;9.54;100.00
11678;BME280;5895;41.950;24.372;2022-12-11T05:18:38;85078.06;;;9.52;100.00
11678;BME280;5895;41.950;24.372;2022-12-11T05:21:07;85066.69;;;9.48;100.00
11678;BME280;5895;41.950;24.372;2022-12-11T05:23:36;85097.78;;;9.43;100.00
11678;BME280;5895;41.950;24.372;2022-12-11T05:26:06;85097.50;;;9.40;100.00
11678;BME280;5895;41.950;24.372;2022-12-11T05:28:36;85099.06;;;9.36;100.00
11678;BME280;5895;41.950;24.372;2022-12-11T05:31:06;85104.00;;;9.32;100.00
11678;BME280;5895;41.950;24.372;2022-12-11T05:33:33;85079.66;;;9.33;100.00
11678;BME280;5895;41.950;24.372;2022-12-11T05:36:01;85111.50;;;9.34;100.00
11678;BME280;5895;41.950;24.372;2022-12-11T05:38:29;85075.53;;;9.27;100.00
11678;BME280;5895;41.950;24.372;2022-12-11T05:40:57;85103.47;;;9.20;100.00
11678;BME280;5895;41.950;24.372;2022-12-11T05:43:26;85112.28;;;9.19;100.00
11678;BME280;5895;41.950;24.372;2022-12-11T05:45:56;85118.22;;;9.14;100.00
11678;BME280;5895;41.950;24.372;2022-12-11T05:48:30;85100.66;;;9.11;100.00
11678;BME280;5895;41.950;24.372;2022-12-11T05:50:59;85110.50;;;9.09;100.00
11678;BME280;5895;41.950;24.372;2022-12-11T05:53:27;85125.22;;;9.09;100.00
11678;BME280;5895;41.950;24.372;2022-12-11T05:56:00;85125.75;;;9.06;100.00
11678;BME280;5895;41.950;24.372;2022-12-11T05:58:28;85104.78;;;9.02;100.00
11678;BME280;5895;41.950;24.372;2022-12-11T06:00:57;85139.97;;;9.03;100.00
11678;BME280;5895;41.950;24.372;2022-12-11T06:03:25;85154.47;;;9.04;100.00
11678;BME280;5895;41.950;24.372;2022-12-11T06:05:52;85146.97;;;9.02;100.00
11678;BME280;5895;41.950;24.372;2022-12-11T06:08:20;85181.63;;;9.01;100.00
11678;BME280;5895;41.950;24.372;2022-12-11T06:10:48;85166.38;;;9.05;100.00
11678;BME280;5895;41.950;24.372;2022-12-11T06:13:15;85209.56;;;9.05;100.00
11678;BME280;5895;41.950;24.372;2022-12-11T06:15:43;85178.00;;;9.08;100.00
11678;BME280;5895;41.950;24.372;2022-12-11T06:18:12;85216.03;;;9.12;100.00
11678;BME280;5895;41.950;24.372;2022-12-11T06:20:39;85225.13;;;9.15;100.00
11678;BME280;5895;41.950;24.372;2022-12-11T06:23:07;85216.06;;;9.17;100.00
11678;BME280;5895;41.950;24.372;2022-12-11T06:25:37;85193.53;;;9.18;100.00
11678;BME280;5895;41.950;24.372;2022-12-11T06:28:05;85210.38;;;9.20;100.00
11678;BME280;5895;41.950;24.372;2022-12-11T06:30:32;85215.28;;;9.22;100.00
11678;BME280;5895;41.950;24.372;2022-12-11T06:33:00;85260.03;;;9.22;100.00
11678;BME280;5895;41.950;24.372;2022-12-11T06:35:29;85213.97;;;9.30;100.00
11678;BME280;5895;41.950;24.372;2022-12-11T06:37:57;85227.19;;;9.33;100.00
11678;BME280;5895;41.950;24.372;2022-12-11T06:40:25;85225.66;;;9.37;100.00
11678;BME280;5895;41.950;24.372;2022-12-11T06:42:53;85226.66;;;9.41;100.00
11678;BME280;5895;41.950;24.372;2022-12-11T06:45:20;85210.63;;;9.44;100.00
11678;BME280;5895;41.950;24.372;2022-12-11T06:47:48;85244.00;;;9.46;100.00
11678;BME280;5895;41.950;24.372;2022-12-11T06:50:15;85227.69;;;9.45;100.00
11678;BME280;5895;41.950;24.372;2022-12-11T06:52:44;85216.03;;;9.48;100.00
11678;BME280;5895;41.950;24.372;2022-12-11T06:55:12;85210.09;;;9.47;100.00
11678;BME280;5895;41.950;24.372;2022-12-11T06:57:39;85230.03;;;9.47;99.79
11678;BME280;5895;41.950;24.372;2022-12-11T07:00:07;85226.41;;;9.48;100.00
11678;BME280;5895;41.950;24.372;2022-12-11T07:02:35;85240.66;;;9.50;100.00
11678;BME280;5895;41.950;24.372;2022-12-11T07:05:04;85238.56;;;9.52;100.00
11678;BME280;5895;41.950;24.372;2022-12-11T07:07:32;85216.03;;;9.58;99.97
11678;BME280;5895;41.950;24.372;2022-12-11T07:10:01;85202.84;;;9.60;99.93
11678;BME280;5895;41.950;24.372;2022-12-11T07:12:28;85195.88;;;9.65;98.21
11678;BME280;5895;41.950;24.372;2022-12-11T07:14:55;85186.78;;;9.68;98.51
11678;BME280;5895;41.950;24.372;2022-12-11T07:17:23;85197.66;;;9.65;98.02
11678;BME280;5895;41.950;24.372;2022-12-11T07:19:50;85219.41;;;9.64;98.48
11678;BME280;5895;41.950;24.372;2022-12-11T07:22:18;85195.59;;;9.62;99.44
11678;BME280;5895;41.950;24.372;2022-12-11T07:24:45;85194.81;;;9.61;99.12
11678;BME280;5895;41.950;24.372;2022-12-11T07:27:14;85189.38;;;9.58;99.02
11678;BME280;5895;41.950;24.372;2022-12-11T07:29:42;85241.16;;;9.58;99.14
11678;BME280;5895;41.950;24.372;2022-12-11T07:32:09;85173.84;;;9.58;98.08
11678;BME280;5895;41.950;24.372;2022-12-11T07:34:37;85182.38;;;9.53;98.66
11678;BME280;5895;41.950;24.372;2022-12-11T07:37:04;85211.41;;;9.55;98.42
11678;BME280;5895;41.950;24.372;2022-12-11T07:39:32;85190.94;;;9.53;99.26
11678;BME280;5895;41.950;24.372;2022-12-11T07:41:59;85172.03;;;9.53;97.67
11678;BME280;5895;41.950;24.372;2022-12-11T07:44:28;85188.88;;;9.50;99.54
11678;BME280;5895;41.950;24.372;2022-12-11T07:46:56;85193.53;;;9.48;100.00
11678;BME280;5895;41.950;24.372;2022-12-11T07:49:23;85191.47;;;9.61;99.65
11678;BME280;5895;41.950;24.372;2022-12-11T07:51:50;85199.72;;;9.68;96.65
11678;BME280;5895;41.950;24.372;2022-12-11T07:54:18;85184.69;;;9.80;97.26
11678;BME280;5895;41.950;24.372;2022-12-11T07:56:46;85190.34;;;9.92;97.98
11678;BME280;5895;41.950;24.372;2022-12-11T07:59:14;85189.31;;;9.98;98.01
11678;BME280;5895;41.950;24.372;2022-12-11T08:01:43;85205.34;;;10.11;97.18
11678;BME280;5895;41.950;24.372;2022-12-11T08:04:11;85216.72;;;10.15;97.32
11678;BME280;5895;41.950;24.372;2022-12-11T08:06:41;85204.03;;;10.18;96.44
11678;BME280;5895;41.950;24.372;2022-12-11T08:09:10;85210.00;;;10.29;96.07
11678;BME280;5895;41.950;24.372;2022-12-11T08:11:39;85212.03;;;10.37;96.00
11678;BME280;5895;41.950;24.372;2022-12-11T08:14:06;85194.38;;;10.44;95.76
11678;BME280;5895;41.950;24.372;2022-12-11T08:16:34;85201.91;;;10.46;95.10
11678;BME280;5895;41.950;24.372;2022-12-11T08:19:04;85227.06;;;10.40;95.61
11678;BME280;5895;41.950;24.372;2022-12-11T08:21:31;85214.09;;;10.40;95.20
11678;BME280;5895;41.950;24.372;2022-12-11T08:23:58;85199.34;;;10.36;94.88
11678;BME280;5895;41.950;24.372;2022-12-11T08:26:27;85213.63;;;10.28;94.24
11678;BME280;5895;41.950;24.372;2022-12-11T08:28:55;85196.78;;;10.25;96.06
11678;BME280;5895;41.950;24.372;2022-12-11T08:31:23;85201.44;;;10.18;95.62
11678;BME280;5895;41.950;24.372;2022-12-11T08:33:51;85201.16;;;10.20;96.01
11678;BME280;5895;41.950;24.372;2022-12-11T08:36:21;85211.03;;;10.23;95.51
11678;BME280;5895;41.950;24.372;2022-12-11T08:38:49;85216.72;;;10.35;95.24
11678;BME280;5895;41.950;24.372;2022-12-11T08:41:18;85230.94;;;10.38;94.78
11678;BME280;5895;41.950;24.372;2022-12-11T08:43:46;85216.13;;;10.53;94.63
11678;BME280;5895;41.950;24.372;2022-12-11T08:46:14;85234.72;;;10.71;94.59
11678;BME280;5895;41.950;24.372;2022-12-11T08:48:42;85255.38;;;10.96;93.18
11678;BME280;5895;41.950;24.372;2022-12-11T08:51:11;85219.97;;;11.10;89.61
11678;BME280;5895;41.950;24.372;2022-12-11T08:53:41;85229.22;;;11.27;90.33
11678;BME280;5895;41.950;24.372;2022-12-11T08:56:11;85247.94;;;11.29;89.92
11678;BME280;5895;41.950;24.372;2022-12-11T08:58:39;85240.19;;;11.19;90.96
11678;BME280;5895;41.950;24.372;2022-12-11T09:01:08;85249.59;;;11.04;90.71
11678;BME280;5895;41.950;24.372;2022-12-11T09:03:36;85247.84;;;10.95;91.67
11678;BME280;5895;41.950;24.372;2022-12-11T09:06:05;85254.38;;;10.87;93.65
11678;BME280;5895;41.950;24.372;2022-12-11T09:08:33;85262.97;;;10.77;92.35
11678;BME280;5895;41.950;24.372;2022-12-11T09:11:08;85273.09;;;10.74;92.57
11678;BME280;5895;41.950;24.372;2022-12-11T09:13:35;85256.25;;;10.71;93.48
11678;BME280;5895;41.950;24.372;2022-12-11T09:16:04;85246.13;;;10.70;93.69
11678;BME280;5895;41.950;24.372;2022-12-11T09:18:31;85231.91;;;10.67;93.83
11678;BME280;5895;41.950;24.372;2022-12-11T09:21:00;85218.66;;;10.64;93.51
11678;BME280;5895;41.950;24.372;2022-12-11T09:23:27;85233.47;;;10.63;94.04
11678;BME280;5895;41.950;24.372;2022-12-11T09:25:55;85249.03;;;10.63;94.22
11678;BME280;5895;41.950;24.372;2022-12-11T09:28:24;85225.94;;;10.67;92.47
11678;BME280;5895;41.950;24.372;2022-12-11T09:30:52;85227.72;;;10.71;92.67
11678;BME280;5895;41.950;24.372;2022-12-11T09:33:19;85228.69;;;10.85;92.11
11678;BME280;5895;41.950;24.372;2022-12-11T09:35:56;85261.66;;;10.80;89.09
11678;BME280;5895;41.950;24.372;2022-12-11T09:38:23;85254.38;;;10.82;91.43
11678;BME280;5895;41.950;24.372;2022-12-11T09:40:51;85248.19;;;10.78;91.10
11678;BME280;5895;41.950;24.372;2022-12-11T09:43:33;85249.00;;;10.68;89.38
11678;BME280;5895;41.950;24.372;2022-12-11T09:46:05;85234.22;;;10.69;89.67
11678;BME280;5895;41.950;24.372;2022-12-11T09:48:33;85222.28;;;10.68;90.43
11678;BME280;5895;41.950;24.372;2022-12-11T09:51:07;85223.34;;;10.67;89.98
11678;BME280;5895;41.950;24.372;2022-12-11T09:53:39;85202.03;;;10.70;91.07
11678;BME280;5895;41.950;24.372;2022-12-11T09:56:14;85213.97;;;10.66;88.58
11678;BME280;5895;41.950;24.372;2022-12-11T09:58:55;85224.34;;;10.66;88.51
11678;BME280;5895;41.950;24.372;2022-12-11T10:01:32;85219.94;;;10.66;89.80
11678;BME280;5895;41.950;24.372;2022-12-11T10:04:20;85211.19;;;10.57;88.57
11678;BME280;5895;41.950;24.372;2022-12-11T10:06:59;85212.22;;;10.56;91.61
11678;BME280;5895;41.950;24.372;2022-12-11T10:09:32;85207.56;;;10.53;92.42
11678;BME280;5895;41.950;24.372;2022-12-11T10:12:12;85206.00;;;10.57;93.71
11678;BME280;5895;41.950;24.372;2022-12-11T10:14:57;85190.66;;;10.60;92.49
11678;BME280;5895;41.950;24.372;2022-12-11T10:17:28;85194.56;;;10.63;92.21
11678;BME280;5895;41.950;24.372;2022-12-11T10:20:15;85201.00;;;10.71;91.15
11678;BME280;5895;41.950;24.372;2022-12-11T10:22:44;85174.63;;;11.03;91.55
11678;BME280;5895;41.950;24.372;2022-12-11T10:25:18;85156.53;;;11.61;89.76
11678;BME280;5895;41.950;24.372;2022-12-11T10:27:46;85161.34;;;12.07;88.19
11678;BME280;5895;41.950;24.372;2022-12-11T10:30:18;85146.56;;;12.50;84.30
11678;BME280;5895;41.950;24.372;2022-12-11T10:32:52;85145.75;;;12.74;81.96
11678;BME280;5895;41.950;24.372;2022-12-11T10:35:28;85158.16;;;12.82;77.08
11678;BME280;5895;41.950;24.372;2022-12-11T10:38:09;85162.63;;;12.57;79.35
11678;BME280;5895;41.950;24.372;2022-12-11T10:40:39;85153.94;;;12.43;83.06
11678;BME280;5895;41.950;24.372;2022-12-11T10:43:09;85161.84;;;12.09;82.67
11678;BME280;5895;41.950;24.372;2022-12-11T10:45:38;85171.19;;;11.81;84.33
11678;BME280;5895;41.950;24.372;2022-12-11T10:48:09;85162.50;;;11.61;85.80
11678;BME280;5895;41.950;24.372;2022-12-11T10:50:37;85165.56;;;11.39;87.24
11678;BME280;5895;41.950;24.372;2022-12-11T10:53:16;85166.72;;;11.23;87.63
11678;BME280;5895;41.950;24.372;2022-12-11T10:55:47;85167.78;;;11.17;88.18
11678;BME280;5895;41.950;24.372;2022-12-11T10:58:17;85150.44;;;11.12;88.38
11678;BME280;5895;41.950;24.372;2022-12-11T11:01:03;85158.31;;;10.97;85.89
11678;BME280;5895;41.950;24.372;2022-12-11T11:03:33;85165.09;;;10.88;88.97
11678;BME280;5895;41.950;24.372;2022-12-11T11:06:03;85149.63;;;10.78;90.64
11678;BME280;5895;41.950;24.372;2022-12-11T11:08:38;85139.78;;;10.70;91.52
11678;BME280;5895;41.950;24.372;2022-12-11T11:11:13;85152.75;;;10.70;92.69
11678;BME280;5895;41.950;24.372;2022-12-11T11:13:46;85163.69;;;10.67;90.70
11678;BME280;5895;41.950;24.372;2022-12-11T11:16:17;85161.13;;;10.62;88.85
11678;BME280;5895;41.950;24.372;2022-12-11T11:18:51;85149.47;;;10.54;89.28
11678;BME280;5895;41.950;24.372;2022-12-11T11:21:21;85164.25;;;10.53;91.53
11678;BME280;5895;41.950;24.372;2022-12-11T11:23:50;85146.38;;;10.52;91.53
11678;BME280;5895;41.950;24.372;2022-12-11T11:26:19;85151.00;;;10.55;91.34
11678;BME280;5895;41.950;24.372;2022-12-11T11:28:49;85157.50;;;10.57;90.56
11678;BME280;5895;41.950;24.372;2022-12-11T11:31:20;85153.38;;;10.56;89.40
11678;BME280;5895;41.950;24.372;2022-12-11T11:33:54;85154.34;;;10.60;91.34
11678;BME280;5895;41.950;24.372;2022-12-11T11:36:24;85146.53;;;10.71;90.75
11678;BME280;5895;41.950;24.372;2022-12-11T11:39:03;85150.13;;;10.80;88.77
11678;BME280;5895;41.950;24.372;2022-12-11T11:41:37;85140.41;;;11.35;88.56
11678;BME280;5895;41.950;24.372;2022-12-11T11:44:11;85155.53;;;11.91;85.35
11678;BME280;5895;41.950;24.372;2022-12-11T11:46:43;85140.94;;;12.43;85.31
11678;BME280;5895;41.950;24.372;2022-12-11T11:49:19;85136.72;;;12.47;83.67
11678;BME280;5895;41.950;24.372;2022-12-11T11:51:54;85131.16;;;12.35;84.63
11678;BME280;5895;41.950;24.372;2022-12-11T11:54:30;85121.41;;;12.22;83.08
11678;BME280;5895;41.950;24.372;2022-12-11T11:57:03;85119.47;;;12.08;84.16
11678;BME280;5895;41.950;24.372;2022-12-11T11:59:41;85122.31;;;11.83;83.95
11678;BME280;5895;41.950;24.372;2022-12-11T12:02:15;85120.41;;;11.64;85.01
11678;BME280;5895;41.950;24.372;2022-12-11T12:04:44;85120.81;;;11.48;87.88
11678;BME280;5895;41.950;24.372;2022-12-11T12:07:26;85110.28;;;11.34;85.24
11678;BME280;5895;41.950;24.372;2022-12-11T12:10:02;85120.13;;;11.37;85.70
11678;BME280;5895;41.950;24.372;2022-12-11T12:12:39;85119.56;;;11.45;87.61
11678;BME280;5895;41.950;24.372;2022-12-11T12:15:17;85115.38;;;11.44;88.57
11678;BME280;5895;41.950;24.372;2022-12-11T12:17:52;85115.50;;;11.34;90.12
11678;BME280;5895;41.950;24.372;2022-12-11T12:20:28;85110.38;;;11.24;87.95
11678;BME280;5895;41.950;24.372;2022-12-11T12:23:14;85106.53;;;11.16;89.06
11678;BME280;5895;41.950;24.372;2022-12-11T12:25:50;85095.97;;;11.07;89.71
11678;BME280;5895;41.950;24.372;2022-12-11T12:28:26;85102.75;;;10.98;89.69
11678;BME280;5895;41.950;24.372;2022-12-11T12:31:08;85114.53;;;10.85;89.18
11678;BME280;5895;41.950;24.372;2022-12-11T12:33:49;85111.50;;;10.73;88.09
11678;BME280;5895;41.950;24.372;2022-12-11T12:36:26;85110.75;;;10.68;89.37
11678;BME280;5895;41.950;24.372;2022-12-11T12:39:00;85111.06;;;10.61;89.72
11678;BME280;5895;41.950;24.372;2022-12-11T12:41:34;85105.63;;;10.57;90.28
11678;BME280;5895;41.950;24.372;2022-12-11T12:44:15;85104.34;;;10.55;89.21
11678;BME280;5895;41.950;24.372;2022-12-11T12:46:50;85110.31;;;10.55;92.28
11678;BME280;5895;41.950;24.372;2022-12-11T12:49:29;85100.75;;;10.51;92.51
11678;BME280;5895;41.950;24.372;2022-12-11T12:52:00;85103.66;;;10.44;92.27
11678;BME280;5895;41.950;24.372;2022-12-11T12:54:29;85089.16;;;10.38;92.85
11678;BME280;5895;41.950;24.372;2022-12-11T12:57:00;85089.72;;;10.30;92.29
11678;BME280;5895;41.950;24.372;2022-12-11T12:59:29;85098.56;;;10.24;93.60
11678;BME280;5895;41.950;24.372;2022-12-11T13:01:59;85114.13;;;10.14;95.02
11678;BME280;5895;41.950;24.372;2022-12-11T13:04:37;85098.59;;;10.03;93.32
11678;BME280;5895;41.950;24.372;2022-12-11T13:07:20;85083.13;;;9.93;92.88
11678;BME280;5895;41.950;24.372;2022-12-11T13:10:03;85097.38;;;9.86;93.74
11678;BME280;5895;41.950;24.372;2022-12-11T13:12:39;85094.28;;;9.84;95.06
11678;BME280;5895;41.950;24.372;2022-12-11T13:15:22;85096.41;;;9.76;95.51
11678;BME280;5895;41.950;24.372;2022-12-11T13:17:50;85101.03;;;9.74;95.51